createdAt,value
2023-04-12T00:00:56.858Z,29.85
2023-04-12T00:03:25.412Z,29.60
2023-04-12T00:05:56.313Z,34.00
2023-04-12T00:08:32.962Z,34.50
2023-04-12T00:11:00.478Z,29.10
2023-04-12T00:13:27.326Z,34.35
2023-04-12T00:15:54.106Z,32.28
2023-04-12T00:18:25.023Z,31.70
2023-04-12T00:20:52.548Z,32.53
2023-04-12T00:23:19.378Z,28.67
2023-04-12T00:25:46.345Z,28.23
2023-04-12T00:28:13.161Z,27.65
2023-04-12T00:30:41.276Z,25.65
2023-04-12T00:33:08.313Z,23.20
2023-04-12T00:35:35.077Z,25.42
2023-04-12T00:38:03.694Z,27.52
2023-04-12T00:40:30.799Z,24.10
2023-04-12T00:42:57.749Z,23.85
2023-04-12T00:45:24.571Z,29.02
2023-04-12T00:47:51.416Z,25.42
2023-04-12T00:50:18.229Z,25.92
2023-04-12T00:52:44.990Z,22.65
2023-04-12T00:55:11.974Z,25.85
2023-04-12T00:57:39.529Z,23.75
2023-04-12T01:00:13.589Z,23.92
2023-04-12T01:02:47.969Z,28.27
2023-04-12T01:05:15.178Z,26.92
2023-04-12T01:08:08.663Z,28.15
2023-04-12T01:10:58.022Z,25.63
2023-04-12T01:13:32.426Z,28.15
2023-04-12T01:16:12.842Z,31.58
2023-04-12T01:18:41.526Z,24.83
2023-04-12T01:21:15.642Z,29.70
2023-04-12T01:24:07.401Z,27.40
2023-04-12T01:26:44.575Z,30.17
2023-04-12T01:29:12.562Z,38.35
2023-04-12T01:31:41.415Z,40.05
2023-04-12T01:34:10.398Z,39.17
2023-04-12T01:36:37.182Z,36.13
2023-04-12T01:39:05.073Z,34.80
2023-04-12T01:41:32.890Z,32.03
2023-04-12T01:43:59.684Z,29.33
2023-04-12T01:46:26.462Z,26.35
2023-04-12T01:48:53.570Z,26.23
2023-04-12T01:51:24.206Z,27.95
2023-04-12T01:53:57.741Z,28.15
2023-04-12T01:56:24.719Z,25.15
2023-04-12T01:58:51.917Z,23.50
2023-04-12T02:01:19.388Z,22.55
2023-04-12T02:03:46.399Z,28.23
2023-04-12T02:06:13.271Z,25.65
2023-04-12T02:08:40.224Z,22.67
2023-04-12T02:11:11.026Z,24.77
2023-04-12T02:13:37.888Z,27.92
2023-04-12T02:16:05.375Z,27.58
2023-04-12T02:18:32.167Z,24.65
2023-04-12T02:20:59.037Z,27.88
2023-04-12T02:23:26.150Z,25.08
2023-04-12T02:25:52.973Z,22.95
2023-04-12T02:28:19.710Z,26.35
2023-04-12T02:30:46.733Z,28.02
2023-04-12T02:33:15.714Z,26.40
2023-04-12T02:35:42.646Z,26.33
2023-04-12T02:38:09.511Z,25.38
2023-04-12T02:40:40.834Z,21.60
2023-04-12T02:43:07.991Z,18.88
2023-04-12T02:45:34.791Z,23.23
2023-04-12T02:48:01.679Z,20.25
2023-04-12T02:50:29.406Z,22.33
2023-04-12T02:52:56.369Z,22.23
2023-04-12T02:55:23.152Z,23.77
2023-04-12T02:57:50.377Z,25.10
2023-04-12T03:00:18.022Z,20.67
2023-04-12T03:02:45.170Z,23.00
2023-04-12T03:05:12.354Z,23.58
2023-04-12T03:07:39.234Z,22.27
2023-04-12T03:10:07.388Z,22.63
2023-04-12T03:12:34.230Z,26.83
2023-04-12T03:15:01.275Z,30.27
2023-04-12T03:17:28.050Z,20.48
2023-04-12T03:19:55.557Z,19.88
2023-04-12T03:22:23.452Z,21.00
2023-04-12T03:24:51.767Z,21.05
2023-04-12T03:27:18.576Z,20.42
2023-04-12T03:29:45.787Z,22.73
2023-04-12T03:32:12.647Z,19.17
2023-04-12T03:34:39.536Z,21.20
2023-04-12T03:37:06.560Z,18.45
2023-04-12T03:39:33.347Z,20.90
2023-04-12T03:42:00.095Z,25.00
2023-04-12T03:44:26.987Z,20.52
2023-04-12T03:46:54.172Z,25.02
2023-04-12T03:49:21.521Z,25.67
2023-04-12T03:51:50.693Z,21.50
2023-04-12T03:54:17.560Z,22.30
2023-04-12T03:56:46.045Z,23.20
2023-04-12T03:59:14.827Z,24.80
2023-04-12T04:01:41.744Z,21.98
2023-04-12T04:04:08.749Z,22.73
2023-04-12T04:06:35.668Z,25.83
2023-04-12T04:09:02.474Z,28.08
2023-04-12T04:11:29.336Z,20.73
2023-04-12T04:13:56.624Z,22.15
2023-04-12T04:16:23.483Z,19.83
2023-04-12T04:18:50.202Z,20.40
2023-04-12T04:21:17.121Z,24.67
2023-04-12T04:23:45.490Z,56.30
2023-04-12T04:26:12.499Z,52.55
2023-04-12T04:28:42.157Z,23.70
2023-04-12T04:31:10.505Z,22.15
2023-04-12T04:33:37.828Z,23.00
2023-04-12T04:36:05.603Z,24.63
2023-04-12T04:38:33.760Z,22.92
2023-04-12T04:41:02.538Z,25.85
2023-04-12T04:43:34.262Z,21.45
2023-04-12T04:46:02.327Z,26.30
2023-04-12T04:48:30.012Z,19.63
2023-04-12T04:50:57.217Z,17.27
2023-04-12T04:53:23.985Z,14.60
2023-04-12T04:55:57.849Z,22.00
2023-04-12T04:58:24.661Z,35.47
2023-04-12T05:00:55.907Z,50.35
2023-04-12T05:03:23.056Z,48.75
2023-04-12T05:05:50.029Z,87.47
2023-04-12T05:08:16.976Z,101.85
2023-04-12T05:10:44.476Z,66.43
2023-04-12T05:13:11.371Z,28.55
2023-04-12T05:15:40.699Z,32.20
2023-04-12T05:18:07.500Z,33.45
2023-04-12T05:20:34.276Z,20.95
2023-04-12T05:23:01.228Z,46.53
2023-04-12T05:25:28.009Z,15.30
2023-04-12T05:27:54.784Z,15.65
2023-04-12T05:30:21.769Z,15.88
2023-04-12T05:32:48.528Z,18.17
2023-04-12T05:35:15.401Z,21.55
2023-04-12T05:37:42.145Z,27.38
2023-04-12T05:40:12.357Z,18.85
2023-04-12T05:42:39.240Z,15.63
2023-04-12T05:45:06.824Z,21.25
2023-04-12T05:47:33.741Z,15.40
2023-04-12T05:50:00.751Z,12.63
2023-04-12T05:52:27.563Z,11.15
2023-04-12T05:54:54.417Z,11.27
2023-04-12T05:57:21.229Z,12.27
2023-04-12T05:59:48.042Z,16.92
2023-04-12T06:02:14.978Z,13.63
2023-04-12T06:04:50.308Z,13.15
2023-04-12T06:07:19.331Z,19.25
2023-04-12T06:09:46.202Z,16.33
2023-04-12T06:12:12.960Z,13.52
2023-04-12T06:14:39.815Z,13.70
2023-04-12T06:17:06.593Z,17.45
2023-04-12T06:19:33.362Z,14.65
2023-04-12T06:22:00.256Z,15.55
2023-04-12T06:24:27.036Z,12.75
2023-04-12T06:26:53.748Z,9.73
2023-04-12T06:29:20.856Z,11.45
2023-04-12T06:31:48.458Z,8.63
2023-04-12T06:34:16.014Z,11.27
2023-04-12T06:36:43.641Z,12.05
2023-04-12T06:39:12.175Z,10.05
2023-04-12T06:41:39.003Z,14.13
2023-04-12T06:44:06.055Z,11.82
2023-04-12T06:46:32.942Z,11.75
2023-04-12T06:49:00.098Z,8.80
2023-04-12T06:51:28.250Z,5.97
2023-04-12T06:53:56.226Z,10.60
2023-04-12T06:56:23.180Z,8.13
2023-04-12T06:58:49.965Z,5.70
2023-04-12T07:01:17.828Z,6.88
2023-04-12T07:03:44.907Z,6.75
2023-04-12T07:06:24.149Z,7.43
2023-04-12T07:08:52.842Z,8.10
2023-04-12T07:11:22.753Z,11.50
2023-04-12T07:13:50.267Z,15.80
2023-04-12T07:16:17.802Z,11.02
2023-04-12T07:18:44.671Z,16.05
2023-04-12T07:21:14.505Z,12.50
2023-04-12T07:23:41.473Z,9.52
2023-04-12T07:26:08.271Z,10.88
2023-04-12T07:28:36.515Z,9.25
2023-04-12T07:31:07.115Z,5.20
2023-04-12T07:33:36.072Z,5.05
2023-04-12T07:36:04.014Z,8.05
2023-04-12T07:38:31.167Z,7.75
2023-04-12T07:40:58.093Z,5.97
2023-04-12T07:43:24.934Z,5.00
2023-04-12T07:45:52.049Z,13.45
2023-04-12T07:48:18.866Z,15.00
2023-04-12T07:50:45.686Z,10.57
2023-04-12T07:53:23.425Z,13.25
2023-04-12T07:55:50.331Z,12.40
2023-04-12T07:58:17.335Z,11.23
2023-04-12T08:00:44.847Z,8.25
2023-04-12T08:03:12.975Z,5.45
2023-04-12T08:05:40.207Z,5.85
2023-04-12T08:08:07.119Z,34.80
2023-04-12T08:10:34.135Z,14.93
2023-04-12T08:13:00.905Z,10.68
2023-04-12T08:15:27.717Z,10.73
2023-04-12T08:17:54.735Z,5.32
2023-04-12T08:20:21.690Z,3.03
2023-04-12T08:22:49.071Z,3.67
2023-04-12T08:25:15.922Z,3.30
2023-04-12T08:27:43.206Z,9.45
2023-04-12T08:30:11.629Z,12.77
2023-04-12T08:32:38.652Z,14.07
2023-04-12T08:35:06.366Z,5.07
2023-04-12T08:37:33.559Z,6.70
2023-04-12T08:40:04.220Z,9.20
2023-04-12T08:42:31.988Z,7.85
2023-04-12T08:44:58.738Z,3.00
2023-04-12T08:47:26.067Z,8.18
2023-04-12T08:49:52.923Z,9.50
2023-04-12T08:52:19.850Z,3.88
2023-04-12T08:54:47.676Z,7.68
2023-04-12T08:57:14.464Z,3.38
2023-04-12T08:59:42.445Z,3.97
2023-04-12T09:02:09.333Z,3.10
2023-04-12T09:04:48.586Z,2.65
2023-04-12T09:07:16.145Z,2.97
2023-04-12T09:09:47.394Z,2.25
2023-04-12T09:12:14.382Z,6.93
2023-04-12T09:14:44.658Z,7.85
2023-04-12T09:17:24.584Z,9.13
2023-04-12T09:19:51.770Z,9.55
2023-04-12T09:22:18.598Z,9.30
2023-04-12T09:24:50.613Z,8.05
2023-04-12T09:27:21.021Z,2.47
2023-04-12T09:29:51.585Z,1.73
2023-04-12T09:32:27.540Z,3.45
2023-04-12T09:34:58.250Z,9.20
2023-04-12T09:37:26.214Z,6.30
2023-04-12T09:40:04.859Z,9.38
2023-04-12T09:42:35.184Z,3.92
2023-04-12T09:45:22.000Z,2.38
2023-04-12T09:47:48.903Z,3.78
2023-04-12T09:50:23.123Z,6.97
2023-04-12T09:52:50.196Z,6.13
2023-04-12T09:55:17.076Z,5.75
2023-04-12T09:57:44.982Z,8.05
2023-04-12T10:00:14.457Z,1.52
2023-04-12T10:02:42.806Z,3.25
2023-04-12T10:05:15.233Z,2.55
2023-04-12T10:07:42.554Z,6.85
2023-04-12T10:10:12.368Z,4.35
2023-04-12T10:12:40.895Z,4.25
2023-04-12T10:15:13.044Z,6.30
2023-04-12T10:17:45.418Z,2.33
2023-04-12T10:20:13.239Z,2.80
2023-04-12T10:22:45.059Z,3.70
2023-04-12T10:25:16.621Z,1.65
2023-04-12T10:27:44.222Z,2.53
2023-04-12T10:30:38.113Z,3.47
2023-04-12T10:33:05.415Z,2.38
2023-04-12T10:35:55.326Z,3.70
2023-04-12T10:38:25.038Z,2.70
2023-04-12T10:41:21.427Z,6.18
2023-04-12T10:43:49.049Z,9.70
2023-04-12T10:46:40.827Z,2.85
2023-04-12T10:49:11.606Z,4.32
2023-04-12T10:51:38.733Z,3.65
2023-04-12T10:54:08.697Z,3.42
2023-04-12T10:56:37.440Z,2.63
2023-04-12T10:59:10.949Z,4.78
2023-04-12T11:01:39.272Z,4.57
2023-04-12T11:04:06.957Z,6.32
2023-04-12T11:06:53.377Z,2.47
2023-04-12T11:09:25.548Z,4.53
2023-04-12T11:11:57.229Z,4.18
2023-04-12T11:14:27.515Z,5.68
2023-04-12T11:17:06.594Z,2.75
2023-04-12T11:19:33.900Z,2.35
2023-04-12T11:22:02.327Z,3.38
2023-04-12T11:24:29.296Z,2.40
2023-04-12T11:26:57.278Z,1.58
2023-04-12T11:29:24.835Z,2.28
2023-04-12T11:31:51.746Z,6.13
2023-04-12T11:34:19.044Z,6.55
2023-04-12T11:36:46.448Z,3.38
2023-04-12T11:39:13.611Z,4.93
2023-04-12T11:41:47.310Z,4.88
2023-04-12T11:44:14.654Z,9.73
2023-04-12T11:46:41.750Z,2.85
2023-04-12T11:49:08.542Z,3.40
2023-04-12T11:51:36.316Z,2.90
2023-04-12T11:54:04.386Z,5.18
2023-04-12T11:56:32.466Z,6.22
2023-04-12T11:58:59.331Z,3.70
2023-04-12T12:01:27.786Z,7.03
2023-04-12T12:03:55.089Z,8.35
2023-04-12T12:06:23.514Z,12.52
2023-04-12T12:08:51.285Z,3.20
2023-04-12T12:11:24.068Z,9.68
2023-04-12T12:13:54.884Z,4.82
2023-04-12T12:16:27.213Z,3.38
2023-04-12T12:18:54.175Z,2.72
2023-04-12T12:21:20.994Z,3.53
2023-04-12T12:23:48.904Z,7.88
2023-04-12T12:26:22.421Z,6.40
2023-04-12T12:28:53.594Z,4.30
2023-04-12T12:31:24.528Z,4.95
2023-04-12T12:33:59.057Z,7.35
2023-04-12T12:36:32.763Z,5.78
2023-04-12T12:39:11.535Z,4.40
2023-04-12T12:41:39.245Z,4.22
2023-04-12T12:44:08.174Z,6.28
2023-04-12T12:49:05.322Z,2.85
2023-04-12T12:51:32.123Z,5.80
2023-04-12T12:53:59.280Z,6.15
2023-04-12T12:56:26.622Z,6.53
2023-04-12T12:58:53.395Z,3.70
2023-04-12T13:01:20.352Z,7.68
2023-04-12T13:03:47.533Z,10.88
2023-04-12T13:06:14.354Z,6.57
2023-04-12T13:08:41.232Z,5.00
2023-04-12T13:11:08.056Z,5.43
2023-04-12T13:13:34.808Z,4.55
2023-04-12T13:16:01.794Z,7.20
2023-04-12T13:18:28.590Z,11.80
2023-04-12T13:20:55.388Z,5.60
2023-04-12T13:23:22.166Z,5.75
2023-04-12T13:25:48.944Z,30.77
2023-04-12T13:28:17.020Z,13.43
2023-04-12T13:30:43.886Z,9.63
2023-04-12T13:33:12.965Z,2.63
2023-04-12T13:35:41.722Z,5.53
2023-04-12T13:38:08.605Z,7.68
2023-04-12T13:40:35.861Z,7.40
2023-04-12T13:43:02.635Z,12.25
2023-04-12T13:45:30.603Z,5.18
2023-04-12T13:47:59.033Z,4.43
2023-04-12T13:50:26.110Z,7.22
2023-04-12T13:52:52.924Z,3.67
2023-04-12T13:55:19.778Z,5.53
2023-04-12T13:57:46.645Z,9.63
2023-04-12T14:00:14.193Z,12.80
2023-04-12T14:02:41.150Z,9.10
2023-04-12T14:05:08.663Z,13.27
2023-04-12T14:07:35.808Z,8.18
2023-04-12T14:10:02.729Z,5.97
2023-04-12T14:12:29.573Z,8.70
2023-04-12T14:14:56.897Z,4.47
2023-04-12T14:17:23.798Z,10.13
2023-04-12T14:19:51.240Z,10.82
2023-04-12T14:22:18.097Z,8.32
2023-04-12T14:24:44.884Z,2.72
2023-04-12T14:27:12.695Z,3.35
2023-04-12T14:29:39.845Z,7.68
2023-04-12T14:32:06.653Z,7.30
2023-04-12T14:34:34.387Z,4.88
2023-04-12T14:37:01.227Z,5.20
2023-04-12T14:39:28.163Z,8.48
2023-04-12T14:41:54.920Z,8.07
2023-04-12T14:44:23.832Z,7.45
2023-04-12T14:49:19.126Z,6.65
2023-04-12T14:51:46.010Z,7.40
2023-04-12T14:54:12.936Z,8.90
2023-04-12T14:56:45.547Z,10.73
2023-04-12T14:59:14.083Z,4.80
2023-04-12T15:01:41.702Z,8.70
2023-04-12T15:04:08.977Z,5.30
2023-04-12T15:06:42.175Z,5.13
2023-04-12T15:09:10.079Z,11.88
2023-04-12T15:11:38.082Z,9.95
2023-04-12T15:14:06.082Z,4.80
2023-04-12T15:16:35.110Z,4.28
2023-04-12T15:19:08.682Z,6.68
2023-04-12T15:21:38.160Z,8.25
2023-04-12T15:24:05.103Z,13.15
2023-04-12T15:26:31.925Z,15.50
2023-04-12T15:28:58.779Z,14.95
2023-04-12T15:31:25.941Z,13.30
2023-04-12T15:33:52.882Z,13.63
2023-04-12T15:36:20.376Z,13.75
2023-04-12T15:38:47.179Z,10.77
2023-04-12T15:41:14.022Z,13.18
2023-04-12T15:43:42.138Z,11.75
2023-04-12T15:46:08.896Z,14.45
2023-04-12T15:48:38.704Z,47.95
2023-04-12T15:51:06.334Z,11.00
2023-04-12T15:53:33.118Z,14.00
2023-04-12T15:56:00.688Z,7.18
2023-04-12T15:58:27.527Z,17.67
2023-04-12T16:00:54.710Z,18.48
2023-04-12T16:03:26.241Z,14.65
2023-04-12T16:05:53.727Z,16.23
2023-04-12T16:08:21.178Z,23.15
2023-04-12T16:10:49.060Z,25.67
2023-04-12T16:13:15.903Z,14.93
2023-04-12T16:15:42.872Z,10.68
2023-04-12T16:18:09.813Z,20.27
2023-04-12T16:20:37.515Z,12.73
2023-04-12T16:23:05.211Z,11.82
2023-04-12T16:25:32.239Z,10.60
2023-04-12T16:28:02.491Z,28.90
2023-04-12T16:30:32.748Z,16.38
2023-04-12T16:32:59.762Z,18.73
2023-04-12T16:35:26.843Z,22.95
2023-04-12T16:37:53.682Z,20.98
2023-04-12T16:40:20.567Z,27.95
2023-04-12T16:42:47.375Z,30.75
2023-04-12T16:45:15.033Z,23.38
2023-04-12T16:47:42.259Z,27.98
2023-04-12T16:50:09.612Z,36.10
2023-04-12T16:52:36.841Z,19.85
2023-04-12T16:55:04.113Z,38.88
2023-04-12T16:57:31.280Z,22.83
2023-04-12T16:59:58.398Z,36.60
2023-04-12T17:02:26.060Z,13.82
2023-04-12T17:04:53.150Z,27.40
2023-04-12T17:07:20.022Z,16.27
2023-04-12T17:09:46.872Z,26.95
2023-04-12T17:12:13.732Z,28.63
2023-04-12T17:14:40.684Z,30.95
2023-04-12T17:17:07.509Z,31.83
2023-04-12T17:19:34.319Z,35.22
2023-04-12T17:22:01.657Z,27.08
2023-04-12T17:24:29.141Z,27.08
2023-04-12T17:26:56.371Z,31.40
2023-04-12T17:29:23.260Z,28.45
2023-04-12T17:31:54.244Z,28.85
2023-04-12T17:34:22.187Z,22.48
2023-04-12T17:36:49.272Z,33.40
2023-04-12T17:39:16.340Z,29.08
2023-04-12T17:41:43.657Z,28.90
2023-04-12T17:44:10.472Z,27.13
2023-04-12T17:46:37.542Z,32.63
2023-04-12T17:49:05.921Z,26.70
2023-04-12T17:51:33.271Z,29.67
2023-04-12T17:54:00.637Z,25.48
2023-04-12T17:56:27.883Z,25.15
2023-04-12T17:58:55.263Z,33.80
2023-04-12T18:01:22.504Z,28.85
2023-04-12T18:03:49.883Z,28.08
2023-04-12T18:06:18.663Z,29.30
2023-04-12T18:08:46.932Z,31.13
2023-04-12T18:11:14.607Z,34.03
2023-04-12T18:13:41.969Z,31.05
2023-04-12T18:16:09.093Z,29.52
2023-04-12T18:18:36.190Z,25.23
2023-04-12T18:21:04.800Z,30.85
2023-04-12T18:23:31.956Z,28.58
2023-04-12T18:25:58.771Z,42.42
2023-04-12T18:28:25.479Z,29.50
2023-04-12T18:30:52.248Z,28.67
2023-04-12T18:33:19.099Z,26.20
2023-04-12T18:35:45.891Z,23.30
2023-04-12T18:38:12.684Z,30.15
2023-04-12T18:40:39.555Z,46.55
2023-04-12T18:43:06.346Z,50.80
2023-04-12T18:45:33.162Z,35.50
2023-04-12T18:48:00.648Z,30.75
2023-04-12T18:50:27.604Z,32.35
2023-04-12T18:52:54.505Z,23.35
2023-04-12T18:55:21.595Z,37.65
2023-04-12T18:57:49.244Z,38.22
2023-04-12T19:00:16.905Z,30.52
2023-04-12T19:02:43.918Z,36.45
2023-04-12T19:05:11.746Z,34.05
2023-04-12T19:07:38.504Z,31.65
2023-04-12T19:10:05.669Z,43.47
2023-04-12T19:12:33.039Z,31.92
2023-04-12T19:14:59.974Z,31.02
2023-04-12T19:17:30.401Z,36.80
2023-04-12T19:19:57.535Z,46.33
2023-04-12T19:22:27.712Z,46.80
2023-04-12T19:24:54.807Z,35.10
2023-04-12T19:27:22.945Z,42.15
2023-04-12T19:29:51.560Z,32.92
2023-04-12T19:32:18.932Z,26.90
2023-04-12T19:34:47.033Z,29.05
2023-04-12T19:37:14.187Z,30.80
2023-04-12T19:39:41.217Z,24.15
2023-04-12T19:42:08.144Z,28.45
2023-04-12T19:44:34.954Z,25.55
2023-04-12T19:47:01.802Z,32.85
2023-04-12T19:49:28.854Z,23.90
2023-04-12T19:51:56.271Z,28.20
2023-04-12T19:54:24.007Z,23.83
2023-04-12T19:56:52.557Z,22.45
2023-04-12T19:59:19.993Z,29.23
2023-04-12T20:01:50.561Z,24.20
2023-04-12T20:04:21.186Z,24.83
2023-04-12T20:06:50.164Z,24.23
2023-04-12T20:09:17.323Z,22.88
2023-04-12T20:11:44.091Z,30.02
2023-04-12T20:14:11.045Z,23.90
2023-04-12T20:16:38.285Z,21.33
2023-04-12T20:19:05.333Z,25.80
2023-04-12T20:21:34.196Z,29.55
2023-04-12T20:24:04.131Z,28.08
2023-04-12T20:26:34.169Z,22.80
2023-04-12T20:29:01.385Z,17.52
2023-04-12T20:31:28.574Z,20.25
2023-04-12T20:33:57.083Z,22.73
2023-04-12T20:36:26.382Z,23.70
2023-04-12T20:38:53.687Z,23.88
2023-04-12T20:41:20.547Z,22.98
2023-04-12T20:43:47.821Z,21.70
2023-04-12T20:46:19.689Z,21.65
2023-04-12T20:48:47.548Z,22.13
2023-04-12T20:51:18.553Z,25.17
2023-04-12T20:56:15.267Z,31.98
2023-04-12T20:58:42.076Z,23.20
2023-04-12T21:01:14.901Z,25.70
2023-04-12T21:06:27.796Z,21.83
2023-04-12T21:08:54.590Z,21.77
2023-04-12T21:11:21.374Z,27.92
2023-04-12T21:13:48.182Z,23.13
2023-04-12T21:16:16.019Z,20.13
2023-04-12T21:18:42.979Z,18.52
2023-04-12T21:21:10.110Z,23.95
2023-04-12T21:23:36.894Z,17.80
2023-04-12T21:26:04.136Z,22.05
2023-04-12T21:28:31.272Z,20.42
2023-04-12T21:30:58.442Z,37.92
2023-04-12T21:33:25.217Z,19.30
2023-04-12T21:35:53.508Z,17.85
2023-04-12T21:38:23.412Z,16.95
2023-04-12T21:40:50.359Z,17.95
2023-04-12T21:43:17.318Z,12.43
2023-04-12T21:45:45.279Z,14.25
2023-04-12T21:48:14.590Z,14.00
2023-04-12T21:50:42.026Z,13.23
2023-04-12T21:53:09.048Z,15.55
2023-04-12T21:55:36.276Z,15.15
2023-04-12T21:58:03.803Z,13.75
2023-04-12T22:00:32.068Z,13.38
2023-04-12T22:02:59.553Z,12.00
2023-04-12T22:05:27.954Z,15.75
2023-04-12T22:07:55.255Z,11.13
2023-04-12T22:10:21.992Z,10.27
2023-04-12T22:12:51.226Z,15.90
2023-04-12T22:15:17.994Z,13.45
2023-04-12T22:17:45.401Z,15.82
2023-04-12T22:20:13.186Z,12.05
2023-04-12T22:22:40.572Z,8.77
2023-04-12T22:25:08.597Z,11.43
2023-04-12T22:27:36.192Z,14.38
2023-04-12T22:30:03.019Z,11.82
2023-04-12T22:32:32.008Z,9.32
2023-04-12T22:35:08.323Z,14.23
2023-04-12T22:37:37.579Z,11.10
2023-04-12T22:40:06.362Z,10.00
2023-04-12T22:42:33.083Z,10.27
2023-04-12T22:44:59.806Z,11.48
2023-04-12T22:47:26.935Z,10.57
2023-04-12T22:50:01.127Z,11.40
2023-04-12T22:52:30.635Z,13.90
2023-04-12T22:54:57.563Z,10.80
2023-04-12T22:57:24.375Z,8.70
2023-04-12T22:59:54.220Z,9.82
2023-04-12T23:02:21.344Z,11.60
2023-04-12T23:04:51.002Z,10.75
2023-04-12T23:07:17.894Z,6.57
2023-04-12T23:09:47.516Z,10.20
2023-04-12T23:12:14.466Z,8.75
2023-04-12T23:14:41.226Z,6.93
2023-04-12T23:17:08.016Z,10.15
2023-04-12T23:19:35.531Z,8.65
2023-04-12T23:22:03.231Z,8.32
2023-04-12T23:24:31.002Z,9.50
2023-04-12T23:26:58.798Z,9.95
2023-04-12T23:29:25.881Z,8.27
2023-04-12T23:31:52.943Z,11.63
2023-04-12T23:34:21.909Z,11.93
2023-04-12T23:36:50.215Z,7.60
2023-04-12T23:39:18.195Z,10.27
2023-04-12T23:41:46.625Z,8.00
2023-04-12T23:44:14.326Z,10.90
2023-04-12T23:46:41.126Z,9.35
2023-04-12T23:49:08.543Z,10.20
2023-04-12T23:51:35.361Z,13.55
2023-04-12T23:54:02.197Z,17.70
2023-04-12T23:56:29.035Z,13.00
2023-04-12T23:58:55.881Z,15.65
